| time (UTC) | temp F | wind direction | speed knots | gust knots | rain 1hr in | rain 24hr in | rain mn in | humidity % | barometer mb |
| 20260506013603 | 48 | 327 | 6.1 | 9.6 | 0.00 | 0.00 | 0.00 | 81 | 1012.0 |
| 20260506012703 | 48 | 329 | 5.2 | 10.4 | 0.00 | 0.00 | 0.00 | 81 | 1012.0 |
| 20260506011803 | 48 | 327 | 5.2 | 10.4 | 0.00 | 0.00 | 0.00 | 81 | 1012.0 |
| 20260506011118 | 48 | 319 | 5.2 | 10.4 | 0.00 | 0.00 | 0.00 | 82 | 1011.9 |
| 20260506010004 | 48 | 325 | 5.2 | 8.7 | 0.00 | 0.00 | 0.00 | 82 | 1012.0 |
| 20260506005403 | 48 | 323 | 4.3 | 7.8 | 0.00 | 0.00 | 0.00 | 82 | 1012.1 |
| 20260506004504 | 48 | 336 | 4.3 | 7.8 | 0.00 | 0.00 | 0.00 | 82 | 1012.1 |
| 20260506003817 | 48 | 334 | 4.3 | 7.8 | 0.00 | 0.00 | 0.00 | 83 | 1012.1 |
| 20260506002919 | 48 | 342 | 3.5 | 7.8 | 0.00 | 0.00 | 0.00 | 83 | 1012.1 |
| 20260506001803 | 49 | 320 | 3.5 | 8.7 | 0.00 | 0.00 | 0.00 | 83 | 1012.1 |
| 20260506001119 | 49 | 342 | 3.5 | 8.7 | 0.00 | 0.00 | 0.00 | 83 | 1012.1 |
| 20260506000003 | 49 | 358 | 5.2 | 8.7 | 0.00 | 0.00 | 0.00 | 84 | 1012.1 |
| 20260505235403 | 49 | 356 | 4.3 | 8.7 | 0.00 | 0.00 | 0.00 | 84 | 1012.1 |
| 20260505234503 | 49 | 342 | 3.5 | 7.0 | 0.00 | 0.00 | 0.00 | 84 | 1012.1 |
| 20260505233603 | 49 | 341 | 4.3 | 9.6 | 0.00 | 0.00 | 0.00 | 84 | 1012.2 |
| 20260505232703 | 49 | 348 | 5.2 | 9.6 | 0.00 | 0.00 | 0.00 | 84 | 1012.3 |
| 20260505231803 | 49 | 343 | 5.2 | 9.6 | 0.00 | 0.00 | 0.00 | 84 | 1012.3 |
| 20260505230903 | 49 | 343 | 5.2 | 9.6 | 0.00 | 0.00 | 0.00 | 84 | 1012.3 |
| 20260505230007 | 49 | 341 | 5.2 | 7.8 | 0.00 | 0.00 | 0.00 | 84 | 1012.3 |
| 20260505225618 | 49 | 339 | 4.3 | 7.8 | 0.00 | 0.00 | 0.00 | 84 | 1012.3 |
| 20260505224503 | 49 | 331 | 4.3 | 8.7 | 0.00 | 0.00 | 0.00 | 83 | 1012.3 |
| 20260505223603 | 49 | 335 | 4.3 | 8.7 | 0.00 | 0.00 | 0.00 | 83 | 1012.4 |
| 20260505222703 | 49 | 340 | 4.3 | 7.8 | 0.00 | 0.00 | 0.00 | 83 | 1012.4 |
| 20260505221803 | 49 | 343 | 3.5 | 7.8 | 0.00 | 0.00 | 0.00 | 83 | 1012.5 |
| 20260505220903 | 49 | 343 | 3.5 | 7.0 | 0.00 | 0.00 | 0.00 | 83 | 1012.5 |
| 20260505220004 | 49 | 352 | 3.5 | 7.8 | 0.00 | 0.00 | 0.00 | 82 | 1012.4 |
| 20260505215403 | 49 | 354 | 4.3 | 7.8 | 0.00 | 0.00 | 0.00 | 82 | 1012.3 |
| 20260505214503 | 49 | 4 | 5.2 | 13.9 | 0.00 | 0.00 | 0.00 | 82 | 1012.4 |
| 20260505213603 | 49 | 16 | 6.1 | 13.9 | 0.00 | 0.00 | 0.00 | 82 | 1012.4 |
| 20260505212703 | 49 | 360 | 4.3 | 13.9 | 0.00 | 0.00 | 0.00 | 81 | 1012.5 |
| 20260505211803 | 50 | 354 | 2.6 | 5.2 | 0.00 | 0.00 | 0.00 | 80 | 1012.5 |
| 20260505210903 | 50 | 354 | 3.5 | 9.6 | 0.00 | 0.00 | 0.00 | 80 | 1012.5 |
| 20260505210003 | 50 | 358 | 5.2 | 9.6 | 0.00 | 0.00 | 0.00 | 80 | 1012.5 |
| 20260505205403 | 50 | 359 | 5.2 | 10.4 | 0.00 | 0.00 | 0.00 | 80 | 1012.5 |
| 20260505204503 | 51 | 1 | 5.2 | 10.4 | 0.00 | 0.00 | 0.00 | 79 | 1012.5 |
| 20260505203603 | 51 | 11 | 6.1 | 11.3 | 0.00 | 0.00 | 0.00 | 79 | 1012.5 |
| 20260505202703 | 51 | 2 | 7.0 | 11.3 | 0.00 | 0.00 | 0.00 | 78 | 1012.5 |
| 20260505201803 | 51 | 4 | 7.0 | 11.3 | 0.00 | 0.00 | 0.00 | 77 | 1012.5 |
| 20260505200903 | 52 | 7 | 7.8 | 12.2 | 0.00 | 0.00 | 0.00 | 77 | 1012.3 |
| 20260505200003 | 52 | 358 | 7.0 | 12.2 | 0.00 | 0.00 | 0.00 | 78 | 1012.3 |
| 20260505195620 | 52 | 1 | 6.1 | 12.2 | 0.00 | 0.00 | 0.00 | 78 | 1012.2 |
| 20260505194503 | 52 | 3 | 5.2 | 10.4 | 0.00 | 0.00 | 0.00 | 79 | 1012.0 |
| 20260505193603 | 52 | 358 | 5.2 | 10.4 | 0.00 | 0.00 | 0.00 | 80 | 1011.9 |
| 20260505192703 | 52 | 360 | 4.3 | 9.6 | 0.00 | 0.00 | 0.00 | 81 | 1011.8 |
| 20260505191803 | 52 | 358 | 4.3 | 9.6 | 0.00 | 0.00 | 0.00 | 82 | 1011.7 |
| 20260505190903 | 53 | 357 | 3.5 | 7.0 | 0.00 | 0.00 | 0.00 | 83 | 1011.7 |
| 20260505190219 | 53 | 3 | 3.5 | 7.0 | 0.00 | 0.00 | 0.00 | 83 | 1011.6 |
| 20260505185403 | 52 | 14 | 3.5 | 7.0 | 0.00 | 0.00 | 0.00 | 83 | 1011.5 |
| 20260505184503 | 53 | 17 | 2.6 | 6.1 | 0.00 | 0.00 | 0.00 | 83 | 1011.6 |
| 20260505183603 | 53 | 16 | 2.6 | 8.7 | 0.00 | 0.00 | 0.00 | 83 | 1011.4 |
| 20260505182703 | 53 | 17 | 4.3 | 9.6 | 0.00 | 0.00 | 0.00 | 81 | 1011.5 |
| 20260505182020 | 53 | 15 | 5.2 | 8.7 | 0.00 | 0.00 | 0.00 | 80 | 1011.6 |
| 20260505180903 | 54 | 16 | 6.1 | 9.6 | 0.00 | 0.00 | 0.00 | 78 | 1011.3 |
| 20260505180003 | 54 | 14 | 7.0 | 11.3 | 0.00 | 0.00 | 0.00 | 77 | 1011.3 |
| 20260505175403 | 55 | 10 | 7.0 | 11.3 | 0.00 | 0.00 | 0.00 | 76 | 1011.4 |
| 20260505174503 | 55 | 13 | 7.0 | 11.3 | 0.00 | 0.00 | 0.00 | 74 | 1011.4 |
| 20260505173603 | 56 | 16 | 5.2 | 9.6 | 0.00 | 0.00 | 0.00 | 72 | 1011.3 |
| 20260505172918 | 56 | 9 | 4.3 | 9.6 | 0.00 | 0.00 | 0.00 | 71 | 1011.4 |
| 20260505171803 | 57 | 106 | 0.9 | 2.6 | 0.00 | 0.00 | 0.00 | 69 | 1011.2 |
| 20260505170903 | 57 | 106 | 0.9 | 3.5 | 0.00 | 0.00 | 0.00 | 69 | 1011.3 |
| 20260505170004 | 57 | 106 | 1.7 | 3.5 | 0.00 | 0.00 | 0.00 | 68 | 1011.3 |
| 20260505165617 | 57 | 106 | 0.9 | 3.5 | 0.00 | 0.00 | 0.00 | 68 | 1011.3 |
| 20260505164719 | 57 | 112 | 0.0 | 2.6 | 0.00 | 0.00 | 0.00 | 68 | 1011.1 |
| 20260505163603 | 58 | 128 | 0.9 | 4.3 | 0.00 | 0.00 | 0.00 | 67 | 1011.2 |
| 20260505162703 | 58 | 138 | 1.7 | 7.0 | 0.00 | 0.00 | 0.00 | 67 | 1011.1 |
| 20260505161803 | 58 | 129 | 1.7 | 7.0 | 0.00 | 0.00 | 0.00 | 66 | 1011.2 |
| 20260505160903 | 58 | 133 | 2.6 | 6.1 | 0.00 | 0.00 | 0.00 | 65 | 1011.2 |
| 20260505152703 | 59 | 145 | 3.5 | 7.0 | 0.00 | 0.00 | 0.00 | 62 | 1011.1 |
| 20260505151803 | 59 | 129 | 1.7 | 7.0 | 0.00 | 0.00 | 0.00 | 63 | 1011.1 |
| 20260505150903 | 60 | 139 | 2.6 | 7.0 | 0.00 | 0.00 | 0.00 | 61 | 1011.2 |
| 20260505124717 | 64 | 10 | 0.9 | 10.4 | 0.00 | 0.00 | 0.00 | 49 | 1011.9 |
| 20260505123819 | 66 | 26 | 4.3 | 10.4 | 0.00 | 0.00 | 0.00 | 48 | 1012.0 |
| 20260505122703 | 71 | 33 | 1.7 | 10.4 | 0.00 | 0.00 | 0.00 | 43 | 1012.0 |
| 20260505121803 | 71 | 48 | 3.5 | 8.7 | 0.00 | 0.00 | 0.00 | 45 | 1011.9 |
| 20260505121121 | 71 | 20 | 1.7 | 8.7 | 0.00 | 0.00 | 0.00 | 46 | 1011.9 |
| 20260505120004 | 68 | 9 | 3.5 | 9.6 | 0.00 | 0.00 | 0.00 | 49 | 1011.9 |
| 20260505115403 | 67 | 43 | 3.5 | 9.6 | 0.00 | 0.00 | 0.00 | 51 | 1012.0 |
| 20260505114717 | 65 | 75 | 1.7 | 8.7 | 0.00 | 0.00 | 0.00 | 49 | 1012.0 |
| 20260505113603 | 68 | 358 | 2.6 | 8.7 | 0.00 | 0.00 | 0.00 | 46 | 1012.1 |
| 20260505112703 | 69 | 26 | 3.5 | 8.7 | 0.00 | 0.00 | 0.00 | 47 | 1012.2 |
| 20260505111803 | 68 | 53 | 2.6 | 7.8 | 0.00 | 0.00 | 0.00 | 54 | 1012.4 |
| 20260505110903 | 66 | 56 | 2.6 | 7.8 | 0.00 | 0.00 | 0.00 | 50 | 1012.1 |
| 20260505101803 | 64 | 45 | 2.6 | 8.7 | 0.00 | 0.00 | 0.00 | 58 | 1012.5 |
| 20260505100903 | 64 | 16 | 2.6 | 8.7 | 0.00 | 0.00 | 0.00 | 56 | 1012.5 |
| 20260505100220 | 63 | 14 | 2.6 | 8.7 | 0.00 | 0.00 | 0.00 | 56 | 1012.6 |
| 20260505095621 | 63 | 41 | 3.5 | 8.7 | 0.00 | 0.00 | 0.00 | 58 | 1012.7 |
| 20260505094503 | 63 | 5 | 4.3 | 7.8 | 0.00 | 0.00 | 0.00 | 59 | 1012.8 |
| 20260505093603 | 62 | 3 | 3.5 | 7.8 | 0.00 | 0.00 | 0.00 | 60 | 1012.7 |
| 20260505092703 | 62 | 351 | 3.5 | 7.8 | 0.00 | 0.00 | 0.00 | 60 | 1012.6 |
| 20260505091803 | 60 | 17 | 3.5 | 7.8 | 0.00 | 0.00 | 0.00 | 62 | 1012.5 |
| 20260505090903 | 60 | 3 | 4.3 | 7.0 | 0.00 | 0.00 | 0.00 | 65 | 1012.5 |
| 20260505090003 | 59 | 357 | 4.3 | 7.8 | 0.00 | 0.00 | 0.00 | 66 | 1012.6 |
| 20260505085403 | 59 | 2 | 4.3 | 7.8 | 0.00 | 0.00 | 0.00 | 67 | 1012.7 |
| 20260505084719 | 58 | 6 | 4.3 | 7.8 | 0.00 | 0.00 | 0.00 | 68 | 1012.7 |
| 20260505083603 | 58 | 11 | 5.2 | 7.8 | 0.00 | 0.00 | 0.00 | 71 | 1012.7 |
| 20260505082703 | 58 | 350 | 4.3 | 7.8 | 0.00 | 0.00 | 0.00 | 72 | 1012.7 |
| 20260505081803 | 56 | 344 | 5.2 | 7.8 | 0.00 | 0.00 | 0.00 | 72 | 1012.9 |
| 20260505081119 | 56 | 358 | 5.2 | 7.8 | 0.00 | 0.00 | 0.00 | 71 | 1012.9 |
| 20260505080004 | 57 | 349 | 4.3 | 10.4 | 0.00 | 0.00 | 0.00 | 70 | 1012.8 |
| 20260505075617 | 58 | 356 | 4.3 | 10.4 | 0.00 | 0.00 | 0.00 | 71 | 1012.7 |
| 20260505074503 | 59 | 355 | 6.1 | 10.4 | 0.00 | 0.00 | 0.00 | 70 | 1012.8 |
| 20260505073603 | 59 | 3 | 4.3 | 8.7 | 0.00 | 0.00 | 0.00 | 72 | 1012.7 |
| 20260505072703 | 58 | 22 | 3.5 | 8.7 | 0.00 | 0.00 | 0.00 | 74 | 1012.6 |
| 20260505071803 | 56 | 356 | 4.3 | 8.7 | 0.00 | 0.00 | 0.00 | 78 | 1012.8 |
| 20260505070903 | 54 | 355 | 3.5 | 7.8 | 0.00 | 0.00 | 0.00 | 80 | 1013.0 |
| 20260505070004 | 53 | 356 | 3.5 | 7.0 | 0.00 | 0.00 | 0.00 | 81 | 1013.0 |
| 20260505065403 | 53 | 351 | 3.5 | 6.1 | 0.00 | 0.00 | 0.00 | 82 | 1013.0 |
| 20260505064720 | 53 | 360 | 3.5 | 6.1 | 0.00 | 0.00 | 0.00 | 84 | 1013.0 |
| 20260505063818 | 52 | 6 | 2.6 | 4.3 | 0.00 | 0.00 | 0.00 | 85 | 1013.1 |
| 20260505062920 | 51 | 13 | 1.7 | 3.5 | 0.00 | 0.00 | 0.00 | 86 | 1013.0 |
| 20260505061803 | 51 | 331 | 1.7 | 3.5 | 0.00 | 0.00 | 0.00 | 88 | 1013.2 |
| 20260505060903 | 50 | 319 | 0.9 | 2.6 | 0.00 | 0.00 | 0.00 | 90 | 1013.1 |
| 20260505060217 | 49 | 319 | 0.0 | 0.9 | 0.00 | 0.00 | 0.00 | 90 | 1012.9 |
| 20260505055403 | 48 | 319 | 0.0 | 3.5 | 0.00 | 0.00 | 0.00 | 91 | 1013.1 |
| 20260505054503 | 47 | 313 | 1.7 | 3.5 | 0.00 | 0.00 | 0.00 | 91 | 1013.1 |
| 20260505053603 | 46 | 309 | 1.7 | 2.6 | 0.00 | 0.00 | 0.00 | 91 | 1012.8 |
| 20260505052703 | 46 | 308 | 0.0 | 2.6 | 0.00 | 0.00 | 0.00 | 91 | 1012.9 |
| 20260505051803 | 45 | 308 | 0.0 | 0.9 | 0.00 | 0.00 | 0.00 | 91 | 1012.9 |
| 20260505050903 | 44 | 308 | 0.0 | 0.9 | 0.00 | 0.00 | 0.00 | 91 | 1012.8 |
| 20260505050218 | 43 | 308 | 0.0 | 0.9 | 0.00 | 0.00 | 0.00 | 91 | 1012.8 |
| 20260505040903 | 42 | 0 | 0.0 | 0.0 | 0.00 | 0.00 | 0.00 | 89 | 1012.8 |
| 20260505040004 | 43 | 0 | 0.0 | 0.9 | 0.00 | 0.00 | 0.00 | 89 | 1013.0 |
| 20260505035403 | 43 | 0 | 0.0 | 0.9 | 0.00 | 0.00 | 0.00 | 89 | 1012.9 |
| 20260505034503 | 43 | 32 | 0.0 | 0.9 | 0.00 | 0.00 | 0.00 | 88 | 1012.9 |
| 20260505033603 | 44 | 0 | 0.0 | 0.0 | 0.00 | 0.00 | 0.00 | 88 | 1013.0 |
| 20260505032703 | 45 | 0 | 0.0 | 0.0 | 0.00 | 0.00 | 0.00 | 88 | 1013.1 |
| 20260505031803 | 45 | 0 | 0.0 | 0.0 | 0.00 | 0.00 | 0.00 | 89 | 1013.1 |
| 20260505030903 | 45 | 0 | 0.0 | 0.0 | 0.00 | 0.00 | 0.00 | 88 | 1013.1 |
| 20260505030004 | 46 | 0 | 0.0 | 0.0 | 0.00 | 0.00 | 0.00 | 88 | 1013.1 |
| 20260505025403 | 46 | 0 | 0.0 | 0.0 | 0.00 | 0.00 | 0.00 | 88 | 1013.1 |
| 20260505024503 | 46 | 0 | 0.0 | 2.6 | 0.00 | 0.00 | 0.00 | 87 | 1013.1 |
| 20260505023603 | 47 | 32 | 0.9 | 2.6 | 0.00 | 0.00 | 0.00 | 87 | 1013.2 |
| 20260505022703 | 48 | 32 | 0.9 | 2.6 | 0.00 | 0.00 | 0.00 | 88 | 1013.2 |
| 20260505021803 | 48 | 32 | 0.0 | 2.6 | 0.00 | 0.00 | 0.00 | 87 | 1013.2 |
| 20260505021117 | 48 | 32 | 0.0 | 2.6 | 0.00 | 0.00 | 0.00 | 87 | 1013.3 |
| 20260505020220 | 49 | 32 | 0.9 | 2.6 | 0.00 | 0.00 | 0.00 | 87 | 1013.3 |
| 20260505015403 | 49 | 32 | 0.9 | 3.5 | 0.00 | 0.00 | 0.00 | 87 | 1013.1 |
| 20260505014503 | 50 | 37 | 1.7 | 3.5 | 0.00 | 0.00 | 0.00 | 87 | 1013.1 |